sensor_id;sensor_type;location;lat;lon;timestamp;P1;durP1;ratioP1;P2;durP2;ratioP2
10041;SDS011;5061;49.068;12.058;2023-06-22T00:00:25;3.87;;;2.97;;
10041;SDS011;5061;49.068;12.058;2023-06-22T00:03:46;2.80;;;2.43;;
10041;SDS011;5061;49.068;12.058;2023-06-22T00:07:06;3.20;;;2.90;;
10041;SDS011;5061;49.068;12.058;2023-06-22T00:10:28;4.40;;;2.47;;
10041;SDS011;5061;49.068;12.058;2023-06-22T00:13:49;4.40;;;3.60;;
10041;SDS011;5061;49.068;12.058;2023-06-22T00:17:11;3.70;;;3.07;;
10041;SDS011;5061;49.068;12.058;2023-06-22T00:20:31;4.00;;;2.97;;
10041;SDS011;5061;49.068;12.058;2023-06-22T00:23:52;2.90;;;2.60;;
10041;SDS011;5061;49.068;12.058;2023-06-22T00:27:13;2.80;;;2.50;;
10041;SDS011;5061;49.068;12.058;2023-06-22T00:30:34;3.20;;;2.90;;
10041;SDS011;5061;49.068;12.058;2023-06-22T00:33:55;3.23;;;2.73;;
10041;SDS011;5061;49.068;12.058;2023-06-22T00:37:15;3.00;;;2.70;;
10041;SDS011;5061;49.068;12.058;2023-06-22T00:40:36;3.23;;;2.93;;
10041;SDS011;5061;49.068;12.058;2023-06-22T00:43:57;2.40;;;1.97;;
10041;SDS011;5061;49.068;12.058;2023-06-22T00:47:18;3.73;;;3.27;;
10041;SDS011;5061;49.068;12.058;2023-06-22T00:50:39;4.73;;;3.87;;
10041;SDS011;5061;49.068;12.058;2023-06-22T00:54:00;5.40;;;3.87;;
10041;SDS011;5061;49.068;12.058;2023-06-22T00:57:21;4.17;;;3.43;;
10041;SDS011;5061;49.068;12.058;2023-06-22T01:00:45;4.50;;;3.53;;
10041;SDS011;5061;49.068;12.058;2023-06-22T01:04:06;5.83;;;4.23;;
10041;SDS011;5061;49.068;12.058;2023-06-22T01:07:38;4.10;;;3.70;;
10041;SDS011;5061;49.068;12.058;2023-06-22T01:11:25;4.67;;;4.17;;
10041;SDS011;5061;49.068;12.058;2023-06-22T01:14:52;4.00;;;3.60;;
10041;SDS011;5061;49.068;12.058;2023-06-22T01:18:33;4.20;;;3.80;;
10041;SDS011;5061;49.068;12.058;2023-06-22T01:21:56;3.60;;;3.30;;
10041;SDS011;5061;49.068;12.058;2023-06-22T01:25:20;4.03;;;3.53;;
10041;SDS011;5061;49.068;12.058;2023-06-22T01:28:54;3.70;;;3.23;;
10041;SDS011;5061;49.068;12.058;2023-06-22T01:32:17;3.67;;;3.30;;
10041;SDS011;5061;49.068;12.058;2023-06-22T01:35:38;4.43;;;3.70;;
10041;SDS011;5061;49.068;12.058;2023-06-22T01:39:01;7.03;;;4.00;;
10041;SDS011;5061;49.068;12.058;2023-06-22T01:42:26;2.93;;;2.70;;
10041;SDS011;5061;49.068;12.058;2023-06-22T01:45:47;4.00;;;3.50;;
10041;SDS011;5061;49.068;12.058;2023-06-22T01:49:08;3.27;;;2.97;;
10041;SDS011;5061;49.068;12.058;2023-06-22T01:52:29;4.50;;;3.77;;
10041;SDS011;5061;49.068;12.058;2023-06-22T01:55:50;4.40;;;3.93;;
10041;SDS011;5061;49.068;12.058;2023-06-22T02:02:59;4.50;;;3.63;;
10041;SDS011;5061;49.068;12.058;2023-06-22T02:06:27;5.30;;;4.30;;
10041;SDS011;5061;49.068;12.058;2023-06-22T02:09:55;5.70;;;4.60;;
10041;SDS011;5061;49.068;12.058;2023-06-22T02:13:17;3.87;;;3.20;;
10041;SDS011;5061;49.068;12.058;2023-06-22T02:16:39;3.60;;;3.30;;
10041;SDS011;5061;49.068;12.058;2023-06-22T02:20:01;8.50;;;3.83;;
10041;SDS011;5061;49.068;12.058;2023-06-22T02:23:28;4.53;;;3.63;;
10041;SDS011;5061;49.068;12.058;2023-06-22T02:26:49;5.73;;;3.63;;
10041;SDS011;5061;49.068;12.058;2023-06-22T02:30:10;4.53;;;3.50;;
10041;SDS011;5061;49.068;12.058;2023-06-22T02:33:31;4.57;;;3.67;;
10041;SDS011;5061;49.068;12.058;2023-06-22T02:36:51;4.53;;;3.80;;
10041;SDS011;5061;49.068;12.058;2023-06-22T02:40:12;4.67;;;3.50;;
10041;SDS011;5061;49.068;12.058;2023-06-22T02:43:32;3.90;;;3.27;;
10041;SDS011;5061;49.068;12.058;2023-06-22T02:46:53;4.80;;;4.00;;
10041;SDS011;5061;49.068;12.058;2023-06-22T02:50:14;3.47;;;3.13;;
10041;SDS011;5061;49.068;12.058;2023-06-22T02:53:35;3.00;;;2.70;;
10041;SDS011;5061;49.068;12.058;2023-06-22T02:56:55;2.80;;;2.60;;
10041;SDS011;5061;49.068;12.058;2023-06-22T03:00:16;4.20;;;3.27;;
10041;SDS011;5061;49.068;12.058;2023-06-22T03:03:37;3.30;;;3.00;;
10041;SDS011;5061;49.068;12.058;2023-06-22T03:06:58;3.97;;;2.80;;
10041;SDS011;5061;49.068;12.058;2023-06-22T03:10:21;3.97;;;3.57;;
10041;SDS011;5061;49.068;12.058;2023-06-22T03:13:41;3.20;;;2.90;;
10041;SDS011;5061;49.068;12.058;2023-06-22T03:17:02;2.80;;;2.60;;
10041;SDS011;5061;49.068;12.058;2023-06-22T03:20:23;4.83;;;3.63;;
10041;SDS011;5061;49.068;12.058;2023-06-22T03:23:46;4.73;;;3.80;;
10041;SDS011;5061;49.068;12.058;2023-06-22T03:27:07;3.90;;;3.27;;
10041;SDS011;5061;49.068;12.058;2023-06-22T03:30:27;5.50;;;4.30;;
10041;SDS011;5061;49.068;12.058;2023-06-22T03:33:49;4.90;;;4.30;;
10041;SDS011;5061;49.068;12.058;2023-06-22T03:37:10;5.30;;;3.73;;
10041;SDS011;5061;49.068;12.058;2023-06-22T03:40:30;4.10;;;3.40;;
10041;SDS011;5061;49.068;12.058;2023-06-22T03:43:51;5.73;;;3.50;;
10041;SDS011;5061;49.068;12.058;2023-06-22T03:47:12;3.97;;;3.57;;
10041;SDS011;5061;49.068;12.058;2023-06-22T03:50:32;4.00;;;3.63;;
10041;SDS011;5061;49.068;12.058;2023-06-22T03:53:53;3.97;;;3.20;;
10041;SDS011;5061;49.068;12.058;2023-06-22T03:57:13;5.13;;;3.80;;
10041;SDS011;5061;49.068;12.058;2023-06-22T04:00:34;5.63;;;4.23;;
10041;SDS011;5061;49.068;12.058;2023-06-22T04:03:55;4.40;;;3.50;;
10041;SDS011;5061;49.068;12.058;2023-06-22T04:07:15;7.27;;;4.50;;
10041;SDS011;5061;49.068;12.058;2023-06-22T04:10:37;5.33;;;4.73;;
10041;SDS011;5061;49.068;12.058;2023-06-22T04:13:58;6.00;;;4.67;;
10041;SDS011;5061;49.068;12.058;2023-06-22T04:17:18;5.60;;;4.33;;
10041;SDS011;5061;49.068;12.058;2023-06-22T04:20:39;6.10;;;5.10;;
10041;SDS011;5061;49.068;12.058;2023-06-22T04:24:00;5.00;;;4.50;;
10041;SDS011;5061;49.068;12.058;2023-06-22T04:27:20;5.50;;;4.33;;
10041;SDS011;5061;49.068;12.058;2023-06-22T04:30:43;5.17;;;4.37;;
10041;SDS011;5061;49.068;12.058;2023-06-22T04:34:06;4.87;;;4.37;;
10041;SDS011;5061;49.068;12.058;2023-06-22T04:37:27;5.57;;;4.20;;
10041;SDS011;5061;49.068;12.058;2023-06-22T04:40:48;4.13;;;3.70;;
10041;SDS011;5061;49.068;12.058;2023-06-22T04:47:30;4.47;;;3.80;;
10041;SDS011;5061;49.068;12.058;2023-06-22T04:50:51;5.70;;;3.57;;
10041;SDS011;5061;49.068;12.058;2023-06-22T04:54:11;3.70;;;3.40;;
10041;SDS011;5061;49.068;12.058;2023-06-22T04:57:32;5.00;;;4.43;;
10041;SDS011;5061;49.068;12.058;2023-06-22T05:00:54;6.00;;;5.10;;
10041;SDS011;5061;49.068;12.058;2023-06-22T05:04:16;4.97;;;4.43;;
10041;SDS011;5061;49.068;12.058;2023-06-22T05:07:37;4.33;;;3.87;;
10041;SDS011;5061;49.068;12.058;2023-06-22T05:10:59;4.93;;;4.43;;
10041;SDS011;5061;49.068;12.058;2023-06-22T05:14:20;11.20;;;4.80;;
10041;SDS011;5061;49.068;12.058;2023-06-22T05:17:40;5.27;;;4.60;;
10041;SDS011;5061;49.068;12.058;2023-06-22T05:21:05;4.33;;;3.90;;
10041;SDS011;5061;49.068;12.058;2023-06-22T05:24:25;5.27;;;4.23;;
10041;SDS011;5061;49.068;12.058;2023-06-22T05:27:46;4.20;;;3.80;;
10041;SDS011;5061;49.068;12.058;2023-06-22T05:31:06;3.63;;;3.10;;
10041;SDS011;5061;49.068;12.058;2023-06-22T05:34:27;4.13;;;3.73;;
10041;SDS011;5061;49.068;12.058;2023-06-22T05:37:47;5.27;;;4.00;;
10041;SDS011;5061;49.068;12.058;2023-06-22T05:41:08;3.33;;;3.03;;
10041;SDS011;5061;49.068;12.058;2023-06-22T05:44:29;3.27;;;2.97;;
10041;SDS011;5061;49.068;12.058;2023-06-22T05:47:49;3.30;;;3.00;;
10041;SDS011;5061;49.068;12.058;2023-06-22T05:51:10;3.30;;;2.73;;
10041;SDS011;5061;49.068;12.058;2023-06-22T05:54:30;6.43;;;3.00;;
10041;SDS011;5061;49.068;12.058;2023-06-22T05:57:52;4.30;;;3.17;;
10041;SDS011;5061;49.068;12.058;2023-06-22T06:01:12;3.53;;;3.23;;
10041;SDS011;5061;49.068;12.058;2023-06-22T06:04:35;3.60;;;3.30;;
10041;SDS011;5061;49.068;12.058;2023-06-22T06:07:56;4.77;;;3.10;;
10041;SDS011;5061;49.068;12.058;2023-06-22T06:11:16;3.03;;;2.80;;
10041;SDS011;5061;49.068;12.058;2023-06-22T06:14:37;4.47;;;2.77;;
10041;SDS011;5061;49.068;12.058;2023-06-22T06:17:57;3.83;;;3.10;;
10041;SDS011;5061;49.068;12.058;2023-06-22T06:21:18;3.83;;;3.53;;
10041;SDS011;5061;49.068;12.058;2023-06-22T06:24:39;4.57;;;3.87;;
10041;SDS011;5061;49.068;12.058;2023-06-22T06:27:59;4.53;;;3.90;;
10041;SDS011;5061;49.068;12.058;2023-06-22T06:31:20;3.63;;;3.33;;
10041;SDS011;5061;49.068;12.058;2023-06-22T06:34:41;3.10;;;2.80;;
10041;SDS011;5061;49.068;12.058;2023-06-22T06:38:01;4.20;;;3.53;;
10041;SDS011;5061;49.068;12.058;2023-06-22T06:41:22;3.40;;;3.10;;
10041;SDS011;5061;49.068;12.058;2023-06-22T06:44:43;3.50;;;3.20;;
10041;SDS011;5061;49.068;12.058;2023-06-22T06:48:03;4.70;;;3.20;;
10041;SDS011;5061;49.068;12.058;2023-06-22T06:51:24;4.07;;;3.67;;
10041;SDS011;5061;49.068;12.058;2023-06-22T06:54:44;5.27;;;3.60;;
10041;SDS011;5061;49.068;12.058;2023-06-22T06:58:05;5.10;;;3.53;;
10041;SDS011;5061;49.068;12.058;2023-06-22T07:01:27;3.67;;;3.37;;
10041;SDS011;5061;49.068;12.058;2023-06-22T07:04:53;4.30;;;3.87;;
10041;SDS011;5061;49.068;12.058;2023-06-22T07:08:15;3.20;;;2.77;;
10041;SDS011;5061;49.068;12.058;2023-06-22T07:11:36;4.57;;;3.37;;
10041;SDS011;5061;49.068;12.058;2023-06-22T07:15:03;3.70;;;2.87;;
10041;SDS011;5061;49.068;12.058;2023-06-22T07:18:25;3.90;;;3.50;;
10041;SDS011;5061;49.068;12.058;2023-06-22T07:21:46;3.43;;;2.93;;
10041;SDS011;5061;49.068;12.058;2023-06-22T07:25:07;3.40;;;3.10;;
10041;SDS011;5061;49.068;12.058;2023-06-22T07:28:34;3.73;;;3.10;;
10041;SDS011;5061;49.068;12.058;2023-06-22T07:31:58;3.47;;;3.17;;
10041;SDS011;5061;49.068;12.058;2023-06-22T07:35:20;4.80;;;3.10;;
10041;SDS011;5061;49.068;12.058;2023-06-22T07:38:41;2.73;;;2.53;;
10041;SDS011;5061;49.068;12.058;2023-06-22T07:42:01;2.93;;;2.67;;
10041;SDS011;5061;49.068;12.058;2023-06-22T07:45:22;3.40;;;2.83;;
10041;SDS011;5061;49.068;12.058;2023-06-22T07:48:43;6.37;;;4.23;;
10041;SDS011;5061;49.068;12.058;2023-06-22T07:52:04;3.70;;;3.40;;
10041;SDS011;5061;49.068;12.058;2023-06-22T07:55:25;3.83;;;3.07;;
10041;SDS011;5061;49.068;12.058;2023-06-22T07:58:45;4.73;;;3.83;;
10041;SDS011;5061;49.068;12.058;2023-06-22T08:02:07;4.03;;;3.63;;
10041;SDS011;5061;49.068;12.058;2023-06-22T08:05:28;3.83;;;3.40;;
10041;SDS011;5061;49.068;12.058;2023-06-22T08:08:50;3.10;;;2.80;;
10041;SDS011;5061;49.068;12.058;2023-06-22T08:12:12;3.93;;;3.53;;
10041;SDS011;5061;49.068;12.058;2023-06-22T08:15:33;3.43;;;3.07;;
10041;SDS011;5061;49.068;12.058;2023-06-22T08:18:54;4.40;;;3.70;;
10041;SDS011;5061;49.068;12.058;2023-06-22T08:22:15;3.70;;;3.40;;
10041;SDS011;5061;49.068;12.058;2023-06-22T08:25:36;3.40;;;3.10;;
10041;SDS011;5061;49.068;12.058;2023-06-22T08:28:57;3.63;;;3.27;;
10041;SDS011;5061;49.068;12.058;2023-06-22T08:32:18;4.20;;;3.57;;
10041;SDS011;5061;49.068;12.058;2023-06-22T08:35:38;4.83;;;3.60;;
10041;SDS011;5061;49.068;12.058;2023-06-22T08:38:59;4.90;;;3.47;;
10041;SDS011;5061;49.068;12.058;2023-06-22T08:42:23;4.37;;;2.77;;
10041;SDS011;5061;49.068;12.058;2023-06-22T08:45:44;3.40;;;3.03;;
10041;SDS011;5061;49.068;12.058;2023-06-22T08:49:06;5.93;;;2.80;;
10041;SDS011;5061;49.068;12.058;2023-06-22T08:52:27;5.20;;;3.27;;
10041;SDS011;5061;49.068;12.058;2023-06-22T08:55:47;3.77;;;2.63;;
10041;SDS011;5061;49.068;12.058;2023-06-22T08:59:08;3.20;;;2.73;;
10041;SDS011;5061;49.068;12.058;2023-06-22T09:02:28;3.10;;;2.80;;
10041;SDS011;5061;49.068;12.058;2023-06-22T09:05:50;3.70;;;2.73;;
10041;SDS011;5061;49.068;12.058;2023-06-22T09:09:15;3.10;;;2.47;;
10041;SDS011;5061;49.068;12.058;2023-06-22T09:12:36;3.00;;;2.70;;
10041;SDS011;5061;49.068;12.058;2023-06-22T09:15:57;4.13;;;2.90;;
10041;SDS011;5061;49.068;12.058;2023-06-22T09:19:18;3.27;;;2.97;;
10041;SDS011;5061;49.068;12.058;2023-06-22T09:22:40;3.67;;;2.83;;
10041;SDS011;5061;49.068;12.058;2023-06-22T09:26:01;4.50;;;3.10;;
10041;SDS011;5061;49.068;12.058;2023-06-22T09:29:21;3.83;;;2.80;;
10041;SDS011;5061;49.068;12.058;2023-06-22T09:32:42;5.23;;;3.27;;
10041;SDS011;5061;49.068;12.058;2023-06-22T09:36:04;3.90;;;2.90;;
10041;SDS011;5061;49.068;12.058;2023-06-22T09:39:27;7.27;;;3.17;;
10041;SDS011;5061;49.068;12.058;2023-06-22T09:42:47;2.80;;;2.60;;
10041;SDS011;5061;49.068;12.058;2023-06-22T09:46:08;8.17;;;3.27;;
10041;SDS011;5061;49.068;12.058;2023-06-22T09:49:29;3.67;;;3.00;;
10041;SDS011;5061;49.068;12.058;2023-06-22T09:52:50;4.90;;;3.17;;
10041;SDS011;5061;49.068;12.058;2023-06-22T09:56:14;4.30;;;2.60;;
10041;SDS011;5061;49.068;12.058;2023-06-22T09:59:35;3.90;;;3.50;;
10041;SDS011;5061;49.068;12.058;2023-06-22T10:02:56;5.90;;;3.60;;
10041;SDS011;5061;49.068;12.058;2023-06-22T10:06:17;4.13;;;3.30;;
10041;SDS011;5061;49.068;12.058;2023-06-22T10:09:38;3.37;;;2.67;;
10041;SDS011;5061;49.068;12.058;2023-06-22T10:13:06;6.00;;;3.73;;
10041;SDS011;5061;49.068;12.058;2023-06-22T10:16:32;6.23;;;3.60;;
10041;SDS011;5061;49.068;12.058;2023-06-22T10:19:53;2.83;;;2.53;;
10041;SDS011;5061;49.068;12.058;2023-06-22T10:23:13;4.73;;;2.90;;
10041;SDS011;5061;49.068;12.058;2023-06-22T10:26:35;3.60;;;2.90;;
10041;SDS011;5061;49.068;12.058;2023-06-22T10:29:56;3.60;;;2.90;;
10041;SDS011;5061;49.068;12.058;2023-06-22T10:33:16;4.23;;;3.50;;
10041;SDS011;5061;49.068;12.058;2023-06-22T10:36:38;4.33;;;3.30;;
10041;SDS011;5061;49.068;12.058;2023-06-22T10:39:59;5.13;;;3.13;;
10041;SDS011;5061;49.068;12.058;2023-06-22T10:43:19;4.73;;;3.30;;
10041;SDS011;5061;49.068;12.058;2023-06-22T10:46:40;6.73;;;3.30;;
10041;SDS011;5061;49.068;12.058;2023-06-22T10:50:01;4.07;;;2.90;;
10041;SDS011;5061;49.068;12.058;2023-06-22T10:53:22;5.73;;;3.87;;
10041;SDS011;5061;49.068;12.058;2023-06-22T10:56:42;8.57;;;3.60;;
10041;SDS011;5061;49.068;12.058;2023-06-22T11:00:03;4.83;;;3.83;;
10041;SDS011;5061;49.068;12.058;2023-06-22T11:03:28;5.93;;;3.27;;
10041;SDS011;5061;49.068;12.058;2023-06-22T11:06:49;7.13;;;3.20;;
10041;SDS011;5061;49.068;12.058;2023-06-22T11:10:10;5.13;;;3.80;;
10041;SDS011;5061;49.068;12.058;2023-06-22T11:13:31;5.13;;;3.43;;
10041;SDS011;5061;49.068;12.058;2023-06-22T11:16:52;4.50;;;3.40;;
10041;SDS011;5061;49.068;12.058;2023-06-22T11:20:13;6.40;;;3.70;;
10041;SDS011;5061;49.068;12.058;2023-06-22T11:23:33;5.20;;;3.47;;
10041;SDS011;5061;49.068;12.058;2023-06-22T11:26:54;5.77;;;3.70;;
10041;SDS011;5061;49.068;12.058;2023-06-22T11:30:14;4.60;;;2.90;;
10041;SDS011;5061;49.068;12.058;2023-06-22T11:33:35;6.17;;;4.00;;
10041;SDS011;5061;49.068;12.058;2023-06-22T11:36:56;3.70;;;3.30;;
10041;SDS011;5061;49.068;12.058;2023-06-22T11:40:17;3.97;;;3.37;;
10041;SDS011;5061;49.068;12.058;2023-06-22T11:43:37;3.50;;;2.80;;
10041;SDS011;5061;49.068;12.058;2023-06-22T11:46:58;4.00;;;3.10;;
10041;SDS011;5061;49.068;12.058;2023-06-22T11:50:20;4.40;;;3.50;;
10041;SDS011;5061;49.068;12.058;2023-06-22T11:53:41;6.83;;;3.50;;
10041;SDS011;5061;49.068;12.058;2023-06-22T11:57:02;8.00;;;4.13;;
10041;SDS011;5061;49.068;12.058;2023-06-22T12:00:23;3.83;;;3.40;;
10041;SDS011;5061;49.068;12.058;2023-06-22T12:03:44;4.40;;;3.60;;
10041;SDS011;5061;49.068;12.058;2023-06-22T12:07:04;5.13;;;3.63;;
10041;SDS011;5061;49.068;12.058;2023-06-22T12:10:25;6.20;;;3.20;;
10041;SDS011;5061;49.068;12.058;2023-06-22T12:13:48;3.70;;;2.93;;
10041;SDS011;5061;49.068;12.058;2023-06-22T12:17:09;4.20;;;2.90;;
10041;SDS011;5061;49.068;12.058;2023-06-22T12:20:29;4.17;;;3.30;;
10041;SDS011;5061;49.068;12.058;2023-06-22T12:23:50;7.40;;;3.70;;
10041;SDS011;5061;49.068;12.058;2023-06-22T12:27:10;4.87;;;3.83;;
10041;SDS011;5061;49.068;12.058;2023-06-22T12:30:32;3.90;;;3.50;;
10041;SDS011;5061;49.068;12.058;2023-06-22T12:33:53;3.93;;;3.50;;
10041;SDS011;5061;49.068;12.058;2023-06-22T12:37:14;4.10;;;3.60;;
10041;SDS011;5061;49.068;12.058;2023-06-22T12:40:34;5.53;;;4.10;;
10041;SDS011;5061;49.068;12.058;2023-06-22T12:43:55;3.93;;;3.43;;
10041;SDS011;5061;49.068;12.058;2023-06-22T12:47:15;6.13;;;4.30;;
10041;SDS011;5061;49.068;12.058;2023-06-22T12:50:36;6.10;;;3.60;;
10041;SDS011;5061;49.068;12.058;2023-06-22T12:53:57;7.17;;;4.43;;
10041;SDS011;5061;49.068;12.058;2023-06-22T12:57:17;9.10;;;4.67;;
10041;SDS011;5061;49.068;12.058;2023-06-22T13:00:39;5.37;;;3.90;;
10041;SDS011;5061;49.068;12.058;2023-06-22T13:04:00;5.10;;;3.67;;
10041;SDS011;5061;49.068;12.058;2023-06-22T13:07:20;5.90;;;4.90;;
10041;SDS011;5061;49.068;12.058;2023-06-22T13:10:41;4.27;;;3.30;;
10041;SDS011;5061;49.068;12.058;2023-06-22T13:14:02;6.17;;;4.40;;
10041;SDS011;5061;49.068;12.058;2023-06-22T13:17:22;4.90;;;3.67;;
10041;SDS011;5061;49.068;12.058;2023-06-22T13:20:43;4.60;;;3.67;;
10041;SDS011;5061;49.068;12.058;2023-06-22T13:24:05;4.30;;;3.80;;
10041;SDS011;5061;49.068;12.058;2023-06-22T13:27:26;4.73;;;3.53;;
10041;SDS011;5061;49.068;12.058;2023-06-22T13:30:47;3.37;;;3.03;;
10041;SDS011;5061;49.068;12.058;2023-06-22T13:34:07;6.60;;;3.70;;
10041;SDS011;5061;49.068;12.058;2023-06-22T13:37:28;4.87;;;3.87;;
10041;SDS011;5061;49.068;12.058;2023-06-22T13:40:49;6.60;;;3.47;;
10041;SDS011;5061;49.068;12.058;2023-06-22T13:44:09;4.70;;;3.20;;
10041;SDS011;5061;49.068;12.058;2023-06-22T13:47:30;4.43;;;3.30;;
10041;SDS011;5061;49.068;12.058;2023-06-22T13:50:51;4.70;;;3.50;;
10041;SDS011;5061;49.068;12.058;2023-06-22T13:54:12;4.40;;;3.10;;
10041;SDS011;5061;49.068;12.058;2023-06-22T13:57:33;5.50;;;3.20;;
10041;SDS011;5061;49.068;12.058;2023-06-22T14:00:57;4.90;;;2.93;;
10041;SDS011;5061;49.068;12.058;2023-06-22T14:04:18;5.67;;;3.47;;
10041;SDS011;5061;49.068;12.058;2023-06-22T14:07:38;5.50;;;3.37;;
10041;SDS011;5061;49.068;12.058;2023-06-22T14:10:59;4.27;;;3.23;;
10041;SDS011;5061;49.068;12.058;2023-06-22T14:14:20;3.73;;;2.73;;
10041;SDS011;5061;49.068;12.058;2023-06-22T14:17:41;2.97;;;2.67;;
10041;SDS011;5061;49.068;12.058;2023-06-22T14:21:01;6.03;;;3.57;;
10041;SDS011;5061;49.068;12.058;2023-06-22T14:24:22;4.20;;;3.37;;
10041;SDS011;5061;49.068;12.058;2023-06-22T14:27:43;3.93;;;2.83;;
10041;SDS011;5061;49.068;12.058;2023-06-22T14:31:04;5.43;;;3.27;;
10041;SDS011;5061;49.068;12.058;2023-06-22T14:34:24;3.07;;;2.77;;
10041;SDS011;5061;49.068;12.058;2023-06-22T14:37:45;4.27;;;3.10;;
10041;SDS011;5061;49.068;12.058;2023-06-22T14:41:06;6.03;;;3.53;;
10041;SDS011;5061;49.068;12.058;2023-06-22T14:44:26;4.40;;;2.93;;
10041;SDS011;5061;49.068;12.058;2023-06-22T14:47:49;3.73;;;2.43;;
10041;SDS011;5061;49.068;12.058;2023-06-22T14:51:10;3.67;;;2.70;;
10041;SDS011;5061;49.068;12.058;2023-06-22T14:54:31;3.80;;;2.87;;
10041;SDS011;5061;49.068;12.058;2023-06-22T14:57:52;3.63;;;2.57;;
10041;SDS011;5061;49.068;12.058;2023-06-22T15:01:13;4.43;;;2.90;;
10041;SDS011;5061;49.068;12.058;2023-06-22T15:04:33;4.57;;;2.80;;
10041;SDS011;5061;49.068;12.058;2023-06-22T15:07:55;4.87;;;3.50;;
10041;SDS011;5061;49.068;12.058;2023-06-22T15:11:15;3.83;;;2.50;;
10041;SDS011;5061;49.068;12.058;2023-06-22T15:14:36;5.20;;;3.10;;
10041;SDS011;5061;49.068;12.058;2023-06-22T15:18:01;3.43;;;2.20;;
10041;SDS011;5061;49.068;12.058;2023-06-22T15:21:21;4.30;;;2.80;;
10041;SDS011;5061;49.068;12.058;2023-06-22T15:24:42;6.30;;;2.90;;
10041;SDS011;5061;49.068;12.058;2023-06-22T15:28:03;3.00;;;2.40;;
10041;SDS011;5061;49.068;12.058;2023-06-22T15:31:24;3.87;;;2.60;;
10041;SDS011;5061;49.068;12.058;2023-06-22T15:34:46;3.47;;;2.60;;
10041;SDS011;5061;49.068;12.058;2023-06-22T15:38:06;3.63;;;2.43;;
10041;SDS011;5061;49.068;12.058;2023-06-22T15:41:27;2.67;;;2.43;;
10041;SDS011;5061;49.068;12.058;2023-06-22T15:44:48;2.93;;;2.57;;
10041;SDS011;5061;49.068;12.058;2023-06-22T15:48:09;2.57;;;2.03;;
10041;SDS011;5061;49.068;12.058;2023-06-22T15:51:29;2.90;;;2.53;;
10041;SDS011;5061;49.068;12.058;2023-06-22T15:54:50;3.80;;;2.50;;
10041;SDS011;5061;49.068;12.058;2023-06-22T15:58:14;5.20;;;2.93;;
10041;SDS011;5061;49.068;12.058;2023-06-22T16:01:36;4.00;;;2.43;;
10041;SDS011;5061;49.068;12.058;2023-06-22T16:04:57;3.20;;;2.40;;
10041;SDS011;5061;49.068;12.058;2023-06-22T16:08:19;3.23;;;2.70;;
10041;SDS011;5061;49.068;12.058;2023-06-22T16:11:39;4.90;;;2.37;;
10041;SDS011;5061;49.068;12.058;2023-06-22T16:15:00;2.53;;;2.13;;
10041;SDS011;5061;49.068;12.058;2023-06-22T16:18:21;5.40;;;2.43;;
10041;SDS011;5061;49.068;12.058;2023-06-22T16:21:42;3.97;;;2.23;;
10041;SDS011;5061;49.068;12.058;2023-06-22T16:25:02;2.53;;;1.90;;
10041;SDS011;5061;49.068;12.058;2023-06-22T16:28:23;3.60;;;2.20;;
10041;SDS011;5061;49.068;12.058;2023-06-22T16:31:45;4.70;;;2.63;;
10041;SDS011;5061;49.068;12.058;2023-06-22T16:35:06;2.40;;;2.20;;
10041;SDS011;5061;49.068;12.058;2023-06-22T16:38:27;5.90;;;3.10;;
10041;SDS011;5061;49.068;12.058;2023-06-22T16:41:51;5.30;;;3.10;;
10041;SDS011;5061;49.068;12.058;2023-06-22T16:45:15;3.30;;;2.47;;
10041;SDS011;5061;49.068;12.058;2023-06-22T16:48:36;3.57;;;2.63;;
10041;SDS011;5061;49.068;12.058;2023-06-22T16:51:57;4.13;;;2.90;;
10041;SDS011;5061;49.068;12.058;2023-06-22T16:55:18;3.90;;;2.40;;
10041;SDS011;5061;49.068;12.058;2023-06-22T16:58:41;5.23;;;2.83;;
10041;SDS011;5061;49.068;12.058;2023-06-22T17:02:01;3.40;;;2.37;;
10041;SDS011;5061;49.068;12.058;2023-06-22T17:05:22;2.80;;;2.43;;
10041;SDS011;5061;49.068;12.058;2023-06-22T17:08:43;2.70;;;2.07;;
10041;SDS011;5061;49.068;12.058;2023-06-22T17:12:05;2.47;;;2.00;;
10041;SDS011;5061;49.068;12.058;2023-06-22T17:15:26;5.00;;;2.90;;
10041;SDS011;5061;49.068;12.058;2023-06-22T17:18:50;3.00;;;2.27;;
10041;SDS011;5061;49.068;12.058;2023-06-22T17:22:13;2.30;;;2.00;;
10041;SDS011;5061;49.068;12.058;2023-06-22T17:25:33;6.43;;;2.43;;
10041;SDS011;5061;49.068;12.058;2023-06-22T17:28:54;2.17;;;1.90;;
10041;SDS011;5061;49.068;12.058;2023-06-22T17:32:20;3.10;;;2.13;;
10041;SDS011;5061;49.068;12.058;2023-06-22T17:35:45;3.30;;;2.43;;
10041;SDS011;5061;49.068;12.058;2023-06-22T17:39:09;3.27;;;1.80;;
10041;SDS011;5061;49.068;12.058;2023-06-22T17:42:34;2.30;;;1.90;;
10041;SDS011;5061;49.068;12.058;2023-06-22T17:45:58;2.60;;;2.20;;
10041;SDS011;5061;49.068;12.058;2023-06-22T17:49:19;2.90;;;2.50;;
10041;SDS011;5061;49.068;12.058;2023-06-22T17:52:40;4.03;;;2.60;;
10041;SDS011;5061;49.068;12.058;2023-06-22T17:56:01;2.77;;;2.27;;
10041;SDS011;5061;49.068;12.058;2023-06-22T17:59:22;3.93;;;2.60;;
10041;SDS011;5061;49.068;12.058;2023-06-22T18:02:43;5.87;;;2.83;;
10041;SDS011;5061;49.068;12.058;2023-06-22T18:06:06;3.70;;;2.80;;
10041;SDS011;5061;49.068;12.058;2023-06-22T18:09:27;3.80;;;2.57;;
10041;SDS011;5061;49.068;12.058;2023-06-22T18:12:48;5.70;;;3.10;;
10041;SDS011;5061;49.068;12.058;2023-06-22T18:16:10;5.47;;;3.03;;
10041;SDS011;5061;49.068;12.058;2023-06-22T18:19:30;8.70;;;3.80;;
10041;SDS011;5061;49.068;12.058;2023-06-22T18:22:52;7.40;;;3.57;;
10041;SDS011;5061;49.068;12.058;2023-06-22T18:26:19;5.13;;;3.70;;
10041;SDS011;5061;49.068;12.058;2023-06-22T18:29:41;5.17;;;3.00;;
10041;SDS011;5061;49.068;12.058;2023-06-22T18:33:03;4.63;;;3.30;;
10041;SDS011;5061;49.068;12.058;2023-06-22T18:36:45;4.77;;;3.10;;
10041;SDS011;5061;49.068;12.058;2023-06-22T18:40:11;5.93;;;2.57;;
10041;SDS011;5061;49.068;12.058;2023-06-22T18:43:37;5.27;;;2.93;;
10041;SDS011;5061;49.068;12.058;2023-06-22T18:47:00;3.63;;;2.67;;
10041;SDS011;5061;49.068;12.058;2023-06-22T18:54:03;5.60;;;3.80;;
10041;SDS011;5061;49.068;12.058;2023-06-22T18:57:25;6.17;;;3.83;;
10041;SDS011;5061;49.068;12.058;2023-06-22T19:00:50;3.30;;;3.00;;
10041;SDS011;5061;49.068;12.058;2023-06-22T19:04:15;6.17;;;3.13;;
10041;SDS011;5061;49.068;12.058;2023-06-22T19:11:12;6.40;;;3.53;;
10041;SDS011;5061;49.068;12.058;2023-06-22T19:14:33;5.03;;;3.00;;
10041;SDS011;5061;49.068;12.058;2023-06-22T19:17:54;4.00;;;2.53;;
10041;SDS011;5061;49.068;12.058;2023-06-22T19:21:39;6.83;;;3.53;;
10041;SDS011;5061;49.068;12.058;2023-06-22T19:25:00;4.17;;;2.90;;
10041;SDS011;5061;49.068;12.058;2023-06-22T19:28:21;12.33;;;4.40;;
10041;SDS011;5061;49.068;12.058;2023-06-22T19:31:42;10.40;;;5.23;;
10041;SDS011;5061;49.068;12.058;2023-06-22T19:35:03;9.23;;;3.70;;
10041;SDS011;5061;49.068;12.058;2023-06-22T19:38:26;6.33;;;3.53;;
10041;SDS011;5061;49.068;12.058;2023-06-22T19:41:49;10.30;;;2.70;;
10041;SDS011;5061;49.068;12.058;2023-06-22T19:45:14;7.67;;;3.30;;
10041;SDS011;5061;49.068;12.058;2023-06-22T19:48:39;9.10;;;4.23;;
10041;SDS011;5061;49.068;12.058;2023-06-22T19:52:06;5.80;;;3.80;;
10041;SDS011;5061;49.068;12.058;2023-06-22T19:55:30;6.67;;;3.10;;
10041;SDS011;5061;49.068;12.058;2023-06-22T19:58:51;5.60;;;2.80;;
10041;SDS011;5061;49.068;12.058;2023-06-22T20:02:11;5.80;;;3.60;;
10041;SDS011;5061;49.068;12.058;2023-06-22T20:05:32;7.63;;;4.00;;
10041;SDS011;5061;49.068;12.058;2023-06-22T20:08:59;5.77;;;3.50;;
10041;SDS011;5061;49.068;12.058;2023-06-22T20:12:25;8.50;;;4.27;;
10041;SDS011;5061;49.068;12.058;2023-06-22T20:15:48;5.60;;;3.33;;
10041;SDS011;5061;49.068;12.058;2023-06-22T20:19:12;4.20;;;3.10;;
10041;SDS011;5061;49.068;12.058;2023-06-22T20:22:42;4.53;;;2.60;;
10041;SDS011;5061;49.068;12.058;2023-06-22T20:26:03;5.13;;;3.13;;
10041;SDS011;5061;49.068;12.058;2023-06-22T20:32:53;5.43;;;3.60;;